sensor_id;sensor_type;location;lat;lon;timestamp;P1;durP1;ratioP1;P2;durP2;ratioP2
55063;SDS011;40963;52.168;21.296;2022-10-31T00:02:17;85.45;;;39.60;;
55063;SDS011;40963;52.168;21.296;2022-10-31T00:04:43;85.90;;;36.80;;
55063;SDS011;40963;52.168;21.296;2022-10-31T00:07:09;81.90;;;38.20;;
55063;SDS011;40963;52.168;21.296;2022-10-31T00:09:34;93.72;;;38.67;;
55063;SDS011;40963;52.168;21.296;2022-10-31T00:12:00;80.40;;;38.03;;
55063;SDS011;40963;52.168;21.296;2022-10-31T00:14:25;81.25;;;36.88;;
55063;SDS011;40963;52.168;21.296;2022-10-31T00:16:51;80.22;;;35.95;;
55063;SDS011;40963;52.168;21.296;2022-10-31T00:19:17;77.63;;;36.42;;
55063;SDS011;40963;52.168;21.296;2022-10-31T00:21:42;83.97;;;35.95;;
55063;SDS011;40963;52.168;21.296;2022-10-31T00:24:08;75.60;;;35.38;;
55063;SDS011;40963;52.168;21.296;2022-10-31T00:26:34;76.00;;;34.35;;
55063;SDS011;40963;52.168;21.296;2022-10-31T00:29:00;76.35;;;35.90;;
55063;SDS011;40963;52.168;21.296;2022-10-31T00:31:26;68.40;;;36.75;;
55063;SDS011;40963;52.168;21.296;2022-10-31T00:33:51;77.13;;;33.90;;
55063;SDS011;40963;52.168;21.296;2022-10-31T00:36:17;74.10;;;32.85;;
55063;SDS011;40963;52.168;21.296;2022-10-31T00:38:44;68.10;;;32.17;;
55063;SDS011;40963;52.168;21.296;2022-10-31T00:41:11;69.85;;;30.60;;
55063;SDS011;40963;52.168;21.296;2022-10-31T00:43:38;72.38;;;31.80;;
55063;SDS011;40963;52.168;21.296;2022-10-31T00:46:03;64.35;;;30.70;;
55063;SDS011;40963;52.168;21.296;2022-10-31T00:48:29;71.30;;;31.58;;
55063;SDS011;40963;52.168;21.296;2022-10-31T00:50:55;66.97;;;30.92;;
55063;SDS011;40963;52.168;21.296;2022-10-31T00:53:21;61.70;;;30.75;;
55063;SDS011;40963;52.168;21.296;2022-10-31T00:55:46;68.70;;;30.20;;
55063;SDS011;40963;52.168;21.296;2022-10-31T00:58:12;72.82;;;31.05;;
55063;SDS011;40963;52.168;21.296;2022-10-31T01:00:38;76.07;;;32.10;;
55063;SDS011;40963;52.168;21.296;2022-10-31T01:03:04;76.13;;;32.83;;
55063;SDS011;40963;52.168;21.296;2022-10-31T01:05:30;67.65;;;31.77;;
55063;SDS011;40963;52.168;21.296;2022-10-31T01:07:55;81.15;;;32.35;;
55063;SDS011;40963;52.168;21.296;2022-10-31T01:10:21;74.78;;;33.20;;
55063;SDS011;40963;52.168;21.296;2022-10-31T01:12:48;75.15;;;32.58;;
55063;SDS011;40963;52.168;21.296;2022-10-31T01:15:15;65.72;;;31.33;;
55063;SDS011;40963;52.168;21.296;2022-10-31T01:17:46;68.75;;;31.75;;
55063;SDS011;40963;52.168;21.296;2022-10-31T01:20:13;73.63;;;32.35;;
55063;SDS011;40963;52.168;21.296;2022-10-31T01:22:39;85.25;;;33.38;;
55063;SDS011;40963;52.168;21.296;2022-10-31T01:25:06;73.45;;;33.13;;
55063;SDS011;40963;52.168;21.296;2022-10-31T01:27:32;73.13;;;33.65;;
55063;SDS011;40963;52.168;21.296;2022-10-31T01:29:58;69.47;;;33.95;;
55063;SDS011;40963;52.168;21.296;2022-10-31T01:32:24;74.65;;;32.75;;
55063;SDS011;40963;52.168;21.296;2022-10-31T01:34:49;74.95;;;33.53;;
55063;SDS011;40963;52.168;21.296;2022-10-31T01:37:15;74.22;;;33.22;;
55063;SDS011;40963;52.168;21.296;2022-10-31T01:39:41;68.20;;;30.88;;
55063;SDS011;40963;52.168;21.296;2022-10-31T01:42:06;80.18;;;33.88;;
55063;SDS011;40963;52.168;21.296;2022-10-31T01:49:48;67.97;;;32.72;;
55063;SDS011;40963;52.168;21.296;2022-10-31T01:54:56;85.47;;;35.40;;
55063;SDS011;40963;52.168;21.296;2022-10-31T01:57:26;79.32;;;32.85;;
55063;SDS011;40963;52.168;21.296;2022-10-31T01:59:56;75.38;;;32.33;;
55063;SDS011;40963;52.168;21.296;2022-10-31T02:02:24;79.05;;;34.08;;
55063;SDS011;40963;52.168;21.296;2022-10-31T02:04:51;76.55;;;33.80;;
55063;SDS011;40963;52.168;21.296;2022-10-31T02:07:19;82.63;;;33.88;;
55063;SDS011;40963;52.168;21.296;2022-10-31T02:09:50;83.47;;;33.58;;
55063;SDS011;40963;52.168;21.296;2022-10-31T02:12:18;79.03;;;34.75;;
55063;SDS011;40963;52.168;21.296;2022-10-31T02:14:45;81.13;;;33.53;;
55063;SDS011;40963;52.168;21.296;2022-10-31T02:17:11;78.55;;;33.42;;
55063;SDS011;40963;52.168;21.296;2022-10-31T02:19:55;74.72;;;33.13;;
55063;SDS011;40963;52.168;21.296;2022-10-31T02:31:39;70.93;;;32.38;;
55063;SDS011;40963;52.168;21.296;2022-10-31T02:34:34;71.22;;;30.95;;
55063;SDS011;40963;52.168;21.296;2022-10-31T02:37:40;82.85;;;32.60;;
55063;SDS011;40963;52.168;21.296;2022-10-31T02:40:22;73.40;;;31.65;;
55063;SDS011;40963;52.168;21.296;2022-10-31T02:42:57;71.65;;;28.95;;
55063;SDS011;40963;52.168;21.296;2022-10-31T02:45:47;74.38;;;32.15;;
55063;SDS011;40963;52.168;21.296;2022-10-31T02:48:26;68.20;;;30.10;;
55063;SDS011;40963;52.168;21.296;2022-10-31T02:50:55;77.40;;;29.80;;
55063;SDS011;40963;52.168;21.296;2022-10-31T02:53:24;67.30;;;30.42;;
55063;SDS011;40963;52.168;21.296;2022-10-31T02:55:51;65.55;;;28.70;;
55063;SDS011;40963;52.168;21.296;2022-10-31T02:58:26;76.47;;;30.23;;
55063;SDS011;40963;52.168;21.296;2022-10-31T03:04:23;70.82;;;28.77;;
55063;SDS011;40963;52.168;21.296;2022-10-31T03:12:30;77.85;;;30.17;;
55063;SDS011;40963;52.168;21.296;2022-10-31T03:15:34;69.15;;;29.38;;
55063;SDS011;40963;52.168;21.296;2022-10-31T03:20:43;71.32;;;29.80;;
55063;SDS011;40963;52.168;21.296;2022-10-31T03:23:14;67.82;;;27.20;;
55063;SDS011;40963;52.168;21.296;2022-10-31T03:25:41;71.10;;;29.73;;
55063;SDS011;40963;52.168;21.296;2022-10-31T03:28:09;65.85;;;26.98;;
55063;SDS011;40963;52.168;21.296;2022-10-31T03:30:39;65.95;;;28.30;;
55063;SDS011;40963;52.168;21.296;2022-10-31T03:33:09;73.55;;;29.25;;
55063;SDS011;40963;52.168;21.296;2022-10-31T03:35:41;72.07;;;29.70;;
55063;SDS011;40963;52.168;21.296;2022-10-31T03:38:09;60.60;;;27.73;;
55063;SDS011;40963;52.168;21.296;2022-10-31T03:40:36;64.78;;;27.55;;
55063;SDS011;40963;52.168;21.296;2022-10-31T03:43:06;67.72;;;26.45;;
55063;SDS011;40963;52.168;21.296;2022-10-31T03:45:36;61.95;;;25.92;;
55063;SDS011;40963;52.168;21.296;2022-10-31T03:48:09;59.97;;;26.75;;
55063;SDS011;40963;52.168;21.296;2022-10-31T03:50:39;59.00;;;26.88;;
55063;SDS011;40963;52.168;21.296;2022-10-31T03:53:14;59.30;;;27.27;;
55063;SDS011;40963;52.168;21.296;2022-10-31T03:55:48;63.90;;;25.45;;
55063;SDS011;40963;52.168;21.296;2022-10-31T03:58:32;65.43;;;26.08;;
55063;SDS011;40963;52.168;21.296;2022-10-31T04:01:02;64.18;;;26.15;;
55063;SDS011;40963;52.168;21.296;2022-10-31T04:03:31;57.50;;;25.95;;
55063;SDS011;40963;52.168;21.296;2022-10-31T04:06:02;68.30;;;25.70;;
55063;SDS011;40963;52.168;21.296;2022-10-31T04:08:32;64.43;;;25.25;;
55063;SDS011;40963;52.168;21.296;2022-10-31T04:11:03;60.35;;;25.27;;
55063;SDS011;40963;52.168;21.296;2022-10-31T04:13:31;59.35;;;24.67;;
55063;SDS011;40963;52.168;21.296;2022-10-31T04:15:59;59.40;;;24.63;;
55063;SDS011;40963;52.168;21.296;2022-10-31T04:18:25;68.68;;;25.85;;
55063;SDS011;40963;52.168;21.296;2022-10-31T04:21:01;65.35;;;25.60;;
55063;SDS011;40963;52.168;21.296;2022-10-31T04:23:28;54.35;;;23.23;;
55063;SDS011;40963;52.168;21.296;2022-10-31T04:25:54;59.83;;;24.15;;
55063;SDS011;40963;52.168;21.296;2022-10-31T04:28:20;55.85;;;23.90;;
55063;SDS011;40963;52.168;21.296;2022-10-31T04:30:46;61.03;;;24.70;;
55063;SDS011;40963;52.168;21.296;2022-10-31T04:33:12;59.65;;;25.95;;
55063;SDS011;40963;52.168;21.296;2022-10-31T04:35:38;55.15;;;24.77;;
55063;SDS011;40963;52.168;21.296;2022-10-31T04:38:04;57.40;;;23.55;;
55063;SDS011;40963;52.168;21.296;2022-10-31T04:40:30;57.80;;;24.85;;
55063;SDS011;40963;52.168;21.296;2022-10-31T04:42:55;59.55;;;24.08;;
55063;SDS011;40963;52.168;21.296;2022-10-31T04:45:21;58.55;;;25.38;;
55063;SDS011;40963;52.168;21.296;2022-10-31T04:47:47;61.08;;;23.25;;
55063;SDS011;40963;52.168;21.296;2022-10-31T04:50:12;56.25;;;23.10;;
55063;SDS011;40963;52.168;21.296;2022-10-31T04:52:38;51.00;;;23.73;;
55063;SDS011;40963;52.168;21.296;2022-10-31T04:55:05;54.08;;;24.23;;
55063;SDS011;40963;52.168;21.296;2022-10-31T04:57:31;59.33;;;24.60;;
55063;SDS011;40963;52.168;21.296;2022-10-31T04:59:56;54.42;;;26.35;;
55063;SDS011;40963;52.168;21.296;2022-10-31T05:02:22;52.58;;;23.92;;
55063;SDS011;40963;52.168;21.296;2022-10-31T05:04:47;61.15;;;26.23;;
55063;SDS011;40963;52.168;21.296;2022-10-31T05:07:13;59.63;;;24.77;;
55063;SDS011;40963;52.168;21.296;2022-10-31T05:09:39;47.50;;;22.63;;
55063;SDS011;40963;52.168;21.296;2022-10-31T05:12:04;62.80;;;24.38;;
55063;SDS011;40963;52.168;21.296;2022-10-31T05:14:30;51.95;;;23.10;;
55063;SDS011;40963;52.168;21.296;2022-10-31T05:16:55;55.70;;;23.30;;
55063;SDS011;40963;52.168;21.296;2022-10-31T05:19:21;59.25;;;25.08;;
55063;SDS011;40963;52.168;21.296;2022-10-31T05:21:47;62.63;;;24.40;;
55063;SDS011;40963;52.168;21.296;2022-10-31T05:24:12;57.92;;;24.60;;
55063;SDS011;40963;52.168;21.296;2022-10-31T05:26:38;62.95;;;25.35;;
55063;SDS011;40963;52.168;21.296;2022-10-31T05:29:03;57.35;;;24.17;;
55063;SDS011;40963;52.168;21.296;2022-10-31T05:31:29;63.67;;;23.92;;
55063;SDS011;40963;52.168;21.296;2022-10-31T05:33:55;52.15;;;22.35;;
55063;SDS011;40963;52.168;21.296;2022-10-31T05:36:20;50.13;;;23.45;;
55063;SDS011;40963;52.168;21.296;2022-10-31T05:38:46;59.30;;;24.67;;
55063;SDS011;40963;52.168;21.296;2022-10-31T05:41:11;63.33;;;24.92;;
55063;SDS011;40963;52.168;21.296;2022-10-31T05:43:37;68.25;;;26.60;;
55063;SDS011;40963;52.168;21.296;2022-10-31T05:46:02;58.83;;;24.08;;
55063;SDS011;40963;52.168;21.296;2022-10-31T05:48:28;56.85;;;24.50;;
55063;SDS011;40963;52.168;21.296;2022-10-31T05:50:53;62.60;;;24.33;;
55063;SDS011;40963;52.168;21.296;2022-10-31T05:53:19;57.97;;;23.85;;
55063;SDS011;40963;52.168;21.296;2022-10-31T05:55:45;63.15;;;25.17;;
55063;SDS011;40963;52.168;21.296;2022-10-31T05:58:11;64.28;;;25.15;;
55063;SDS011;40963;52.168;21.296;2022-10-31T06:00:37;51.97;;;22.58;;
55063;SDS011;40963;52.168;21.296;2022-10-31T06:03:04;54.90;;;23.20;;
55063;SDS011;40963;52.168;21.296;2022-10-31T06:05:31;49.30;;;22.58;;
55063;SDS011;40963;52.168;21.296;2022-10-31T06:07:57;51.58;;;22.13;;
55063;SDS011;40963;52.168;21.296;2022-10-31T06:10:23;43.42;;;21.73;;
55063;SDS011;40963;52.168;21.296;2022-10-31T06:12:49;44.85;;;21.77;;
55063;SDS011;40963;52.168;21.296;2022-10-31T06:15:14;52.53;;;21.27;;
55063;SDS011;40963;52.168;21.296;2022-10-31T06:17:40;45.60;;;20.35;;
55063;SDS011;40963;52.168;21.296;2022-10-31T06:20:06;49.17;;;20.08;;
55063;SDS011;40963;52.168;21.296;2022-10-31T06:22:33;42.20;;;19.83;;
55063;SDS011;40963;52.168;21.296;2022-10-31T06:24:58;40.13;;;18.42;;
55063;SDS011;40963;52.168;21.296;2022-10-31T06:27:24;44.38;;;20.08;;
55063;SDS011;40963;52.168;21.296;2022-10-31T06:29:50;44.85;;;19.58;;
55063;SDS011;40963;52.168;21.296;2022-10-31T06:32:16;43.63;;;19.98;;
55063;SDS011;40963;52.168;21.296;2022-10-31T06:34:42;52.10;;;20.27;;
55063;SDS011;40963;52.168;21.296;2022-10-31T06:37:08;44.50;;;18.73;;
55063;SDS011;40963;52.168;21.296;2022-10-31T06:39:35;43.00;;;18.77;;
55063;SDS011;40963;52.168;21.296;2022-10-31T06:42:01;41.10;;;17.85;;
55063;SDS011;40963;52.168;21.296;2022-10-31T06:44:27;44.00;;;18.33;;
55063;SDS011;40963;52.168;21.296;2022-10-31T06:46:52;48.60;;;21.42;;
55063;SDS011;40963;52.168;21.296;2022-10-31T06:49:18;44.85;;;22.10;;
55063;SDS011;40963;52.168;21.296;2022-10-31T06:51:46;47.33;;;22.30;;
55063;SDS011;40963;52.168;21.296;2022-10-31T06:54:13;44.05;;;21.75;;
55063;SDS011;40963;52.168;21.296;2022-10-31T06:56:38;51.05;;;22.17;;
55063;SDS011;40963;52.168;21.296;2022-10-31T06:59:04;43.90;;;20.40;;
55063;SDS011;40963;52.168;21.296;2022-10-31T07:01:29;37.85;;;19.05;;
55063;SDS011;40963;52.168;21.296;2022-10-31T07:03:55;37.92;;;18.50;;
55063;SDS011;40963;52.168;21.296;2022-10-31T07:06:21;37.38;;;18.88;;
55063;SDS011;40963;52.168;21.296;2022-10-31T07:08:46;32.38;;;17.95;;
55063;SDS011;40963;52.168;21.296;2022-10-31T07:11:12;43.22;;;17.83;;
55063;SDS011;40963;52.168;21.296;2022-10-31T07:13:38;31.90;;;17.30;;
55063;SDS011;40963;52.168;21.296;2022-10-31T07:16:04;40.58;;;17.75;;
55063;SDS011;40963;52.168;21.296;2022-10-31T07:18:31;39.22;;;19.35;;
55063;SDS011;40963;52.168;21.296;2022-10-31T07:20:57;32.00;;;17.60;;
55063;SDS011;40963;52.168;21.296;2022-10-31T07:23:23;39.58;;;18.35;;
55063;SDS011;40963;52.168;21.296;2022-10-31T07:25:53;43.15;;;19.05;;
55063;SDS011;40963;52.168;21.296;2022-10-31T07:28:20;40.67;;;17.27;;
55063;SDS011;40963;52.168;21.296;2022-10-31T07:30:49;39.63;;;18.80;;
55063;SDS011;40963;52.168;21.296;2022-10-31T07:33:18;33.55;;;16.30;;
55063;SDS011;40963;52.168;21.296;2022-10-31T07:35:44;33.65;;;17.40;;
55063;SDS011;40963;52.168;21.296;2022-10-31T07:38:11;34.67;;;18.42;;
55063;SDS011;40963;52.168;21.296;2022-10-31T07:40:38;61.33;;;25.55;;
55063;SDS011;40963;52.168;21.296;2022-10-31T07:43:04;47.25;;;21.92;;
55063;SDS011;40963;52.168;21.296;2022-10-31T07:45:30;36.00;;;19.15;;
55063;SDS011;40963;52.168;21.296;2022-10-31T07:47:56;33.95;;;17.98;;
55063;SDS011;40963;52.168;21.296;2022-10-31T07:50:25;31.80;;;17.92;;
55063;SDS011;40963;52.168;21.296;2022-10-31T07:53:02;33.53;;;18.05;;
55063;SDS011;40963;52.168;21.296;2022-10-31T07:55:31;28.48;;;15.18;;
55063;SDS011;40963;52.168;21.296;2022-10-31T07:58:04;27.33;;;14.18;;
55063;SDS011;40963;52.168;21.296;2022-10-31T08:00:41;27.95;;;14.35;;
55063;SDS011;40963;52.168;21.296;2022-10-31T08:03:09;28.35;;;13.18;;
55063;SDS011;40963;52.168;21.296;2022-10-31T08:05:36;23.70;;;12.73;;
55063;SDS011;40963;52.168;21.296;2022-10-31T08:08:05;23.42;;;13.50;;
55063;SDS011;40963;52.168;21.296;2022-10-31T08:10:31;23.48;;;13.45;;
55063;SDS011;40963;52.168;21.296;2022-10-31T08:13:02;27.25;;;13.40;;
55063;SDS011;40963;52.168;21.296;2022-10-31T08:15:32;28.58;;;13.95;;
55063;SDS011;40963;52.168;21.296;2022-10-31T08:18:01;24.50;;;12.65;;
55063;SDS011;40963;52.168;21.296;2022-10-31T08:20:27;27.23;;;13.98;;
55063;SDS011;40963;52.168;21.296;2022-10-31T08:23:00;23.42;;;13.30;;
55063;SDS011;40963;52.168;21.296;2022-10-31T08:25:29;20.70;;;12.18;;
55063;SDS011;40963;52.168;21.296;2022-10-31T08:27:56;29.63;;;14.02;;
55063;SDS011;40963;52.168;21.296;2022-10-31T08:30:23;27.20;;;12.48;;
55063;SDS011;40963;52.168;21.296;2022-10-31T08:32:57;21.95;;;12.02;;
55063;SDS011;40963;52.168;21.296;2022-10-31T08:35:24;26.48;;;13.13;;
55063;SDS011;40963;52.168;21.296;2022-10-31T08:37:53;30.13;;;13.07;;
55063;SDS011;40963;52.168;21.296;2022-10-31T08:40:20;24.55;;;11.60;;
55063;SDS011;40963;52.168;21.296;2022-10-31T08:42:45;23.48;;;12.02;;
55063;SDS011;40963;52.168;21.296;2022-10-31T08:45:11;20.48;;;11.25;;
55063;SDS011;40963;52.168;21.296;2022-10-31T08:47:37;20.48;;;11.32;;
55063;SDS011;40963;52.168;21.296;2022-10-31T08:50:02;22.58;;;11.40;;
55063;SDS011;40963;52.168;21.296;2022-10-31T08:52:28;20.48;;;11.15;;
55063;SDS011;40963;52.168;21.296;2022-10-31T08:54:54;23.25;;;11.82;;
55063;SDS011;40963;52.168;21.296;2022-10-31T08:57:19;20.08;;;11.23;;
55063;SDS011;40963;52.168;21.296;2022-10-31T08:59:45;22.92;;;12.40;;
55063;SDS011;40963;52.168;21.296;2022-10-31T09:02:10;22.92;;;11.80;;
55063;SDS011;40963;52.168;21.296;2022-10-31T09:04:36;22.70;;;11.48;;
55063;SDS011;40963;52.168;21.296;2022-10-31T09:07:01;22.10;;;11.40;;
55063;SDS011;40963;52.168;21.296;2022-10-31T09:09:27;25.55;;;11.18;;
55063;SDS011;40963;52.168;21.296;2022-10-31T09:11:52;20.38;;;10.75;;
55063;SDS011;40963;52.168;21.296;2022-10-31T09:14:18;21.70;;;11.70;;
55063;SDS011;40963;52.168;21.296;2022-10-31T09:16:44;21.23;;;12.43;;
55063;SDS011;40963;52.168;21.296;2022-10-31T09:19:09;23.95;;;13.27;;
55063;SDS011;40963;52.168;21.296;2022-10-31T09:21:35;30.35;;;13.77;;
55063;SDS011;40963;52.168;21.296;2022-10-31T09:24:00;29.75;;;14.68;;
55063;SDS011;40963;52.168;21.296;2022-10-31T09:26:26;26.55;;;14.13;;
55063;SDS011;40963;52.168;21.296;2022-10-31T09:28:52;26.52;;;14.65;;
55063;SDS011;40963;52.168;21.296;2022-10-31T09:31:17;32.13;;;14.20;;
55063;SDS011;40963;52.168;21.296;2022-10-31T09:33:43;24.75;;;14.25;;
55063;SDS011;40963;52.168;21.296;2022-10-31T09:36:08;31.73;;;14.55;;
55063;SDS011;40963;52.168;21.296;2022-10-31T09:38:34;30.13;;;14.65;;
55063;SDS011;40963;52.168;21.296;2022-10-31T09:41:16;27.25;;;14.77;;
55063;SDS011;40963;52.168;21.296;2022-10-31T09:43:58;26.23;;;15.23;;
55063;SDS011;40963;52.168;21.296;2022-10-31T09:49:34;31.80;;;14.93;;
55063;SDS011;40963;52.168;21.296;2022-10-31T09:52:11;27.52;;;15.07;;
55063;SDS011;40963;52.168;21.296;2022-10-31T09:55:02;26.77;;;14.65;;
55063;SDS011;40963;52.168;21.296;2022-10-31T09:57:34;28.30;;;15.93;;
55063;SDS011;40963;52.168;21.296;2022-10-31T10:00:05;29.65;;;15.98;;
55063;SDS011;40963;52.168;21.296;2022-10-31T10:02:40;30.35;;;15.13;;
55063;SDS011;40963;52.168;21.296;2022-10-31T10:05:32;26.80;;;14.63;;
55063;SDS011;40963;52.168;21.296;2022-10-31T10:08:13;21.55;;;13.70;;
55063;SDS011;40963;52.168;21.296;2022-10-31T10:10:55;25.45;;;13.80;;
55063;SDS011;40963;52.168;21.296;2022-10-31T10:16:26;26.05;;;13.07;;
55063;SDS011;40963;52.168;21.296;2022-10-31T10:30:20;21.23;;;12.25;;
55063;SDS011;40963;52.168;21.296;2022-10-31T10:33:05;23.80;;;13.00;;
55063;SDS011;40963;52.168;21.296;2022-10-31T10:35:43;21.27;;;13.38;;
55063;SDS011;40963;52.168;21.296;2022-10-31T10:38:19;25.52;;;13.55;;
55063;SDS011;40963;52.168;21.296;2022-10-31T10:40:52;23.33;;;11.80;;
55063;SDS011;40963;52.168;21.296;2022-10-31T10:45:46;20.60;;;11.68;;
55063;SDS011;40963;52.168;21.296;2022-10-31T10:48:44;22.10;;;12.38;;
55063;SDS011;40963;52.168;21.296;2022-10-31T10:51:20;20.88;;;12.25;;
55063;SDS011;40963;52.168;21.296;2022-10-31T10:56:45;20.75;;;11.63;;
55063;SDS011;40963;52.168;21.296;2022-10-31T10:59:18;18.02;;;11.13;;
55063;SDS011;40963;52.168;21.296;2022-10-31T11:01:46;22.13;;;12.68;;
55063;SDS011;40963;52.168;21.296;2022-10-31T11:04:22;22.05;;;11.65;;
55063;SDS011;40963;52.168;21.296;2022-10-31T11:07:00;18.45;;;10.43;;
55063;SDS011;40963;52.168;21.296;2022-10-31T11:09:31;19.45;;;11.85;;
55063;SDS011;40963;52.168;21.296;2022-10-31T11:11:58;20.60;;;11.43;;
55063;SDS011;40963;52.168;21.296;2022-10-31T11:14:25;16.63;;;11.05;;
55063;SDS011;40963;52.168;21.296;2022-10-31T11:16:55;16.73;;;10.25;;
55063;SDS011;40963;52.168;21.296;2022-10-31T11:19:33;22.20;;;11.82;;
55063;SDS011;40963;52.168;21.296;2022-10-31T11:22:06;18.48;;;10.38;;
55063;SDS011;40963;52.168;21.296;2022-10-31T11:24:36;19.13;;;11.05;;
55063;SDS011;40963;52.168;21.296;2022-10-31T11:27:11;20.92;;;11.57;;
55063;SDS011;40963;52.168;21.296;2022-10-31T11:30:05;19.38;;;10.95;;
55063;SDS011;40963;52.168;21.296;2022-10-31T11:34:58;16.85;;;10.40;;
55063;SDS011;40963;52.168;21.296;2022-10-31T11:37:27;19.65;;;11.15;;
55063;SDS011;40963;52.168;21.296;2022-10-31T11:39:57;18.52;;;10.93;;
55063;SDS011;40963;52.168;21.296;2022-10-31T11:42:29;18.17;;;10.07;;
55063;SDS011;40963;52.168;21.296;2022-10-31T11:45:14;23.80;;;10.65;;
55063;SDS011;40963;52.168;21.296;2022-10-31T11:47:50;17.08;;;10.20;;
55063;SDS011;40963;52.168;21.296;2022-10-31T11:50:19;20.83;;;11.10;;
55063;SDS011;40963;52.168;21.296;2022-10-31T11:52:48;19.83;;;10.75;;
55063;SDS011;40963;52.168;21.296;2022-10-31T11:55:16;20.40;;;11.13;;
55063;SDS011;40963;52.168;21.296;2022-10-31T11:57:54;17.35;;;10.65;;
55063;SDS011;40963;52.168;21.296;2022-10-31T12:00:24;20.10;;;10.98;;
55063;SDS011;40963;52.168;21.296;2022-10-31T12:03:19;22.55;;;10.95;;
55063;SDS011;40963;52.168;21.296;2022-10-31T12:06:31;23.67;;;11.20;;
55063;SDS011;40963;52.168;21.296;2022-10-31T12:08:53;24.35;;;11.70;;
55063;SDS011;40963;52.168;21.296;2022-10-31T12:11:41;18.48;;;10.48;;
55063;SDS011;40963;52.168;21.296;2022-10-31T12:17:14;18.15;;;9.98;;
55063;SDS011;40963;52.168;21.296;2022-10-31T12:22:40;19.92;;;10.38;;
55063;SDS011;40963;52.168;21.296;2022-10-31T12:25:17;21.75;;;10.65;;
55063;SDS011;40963;52.168;21.296;2022-10-31T12:30:49;21.85;;;11.15;;
55063;SDS011;40963;52.168;21.296;2022-10-31T12:33:31;16.92;;;10.35;;
55063;SDS011;40963;52.168;21.296;2022-10-31T12:39:02;15.70;;;8.77;;
55063;SDS011;40963;52.168;21.296;2022-10-31T12:55:30;17.45;;;9.60;;
55063;SDS011;40963;52.168;21.296;2022-10-31T12:58:14;18.33;;;9.70;;
55063;SDS011;40963;52.168;21.296;2022-10-31T13:00:47;16.45;;;9.20;;
55063;SDS011;40963;52.168;21.296;2022-10-31T13:03:19;20.63;;;9.65;;
55063;SDS011;40963;52.168;21.296;2022-10-31T13:05:57;13.48;;;9.52;;
55063;SDS011;40963;52.168;21.296;2022-10-31T13:11:22;17.73;;;9.40;;
55063;SDS011;40963;52.168;21.296;2022-10-31T13:14:05;23.13;;;9.07;;
55063;SDS011;40963;52.168;21.296;2022-10-31T13:16:52;21.38;;;9.43;;
55063;SDS011;40963;52.168;21.296;2022-10-31T13:19:27;21.27;;;10.10;;
55063;SDS011;40963;52.168;21.296;2022-10-31T13:24:42;16.65;;;10.07;;
55063;SDS011;40963;52.168;21.296;2022-10-31T13:27:21;19.60;;;9.65;;
55063;SDS011;40963;52.168;21.296;2022-10-31T13:32:30;16.80;;;9.50;;
55063;SDS011;40963;52.168;21.296;2022-10-31T13:35:16;20.67;;;9.95;;
55063;SDS011;40963;52.168;21.296;2022-10-31T13:37:48;15.27;;;8.43;;
55063;SDS011;40963;52.168;21.296;2022-10-31T13:40:49;16.30;;;9.10;;
55063;SDS011;40963;52.168;21.296;2022-10-31T13:46:25;19.30;;;9.05;;
55063;SDS011;40963;52.168;21.296;2022-10-31T13:49:00;18.33;;;8.80;;
55063;SDS011;40963;52.168;21.296;2022-10-31T13:51:35;12.65;;;7.97;;
55063;SDS011;40963;52.168;21.296;2022-10-31T13:54:01;18.58;;;8.38;;
55063;SDS011;40963;52.168;21.296;2022-10-31T13:56:47;16.02;;;8.80;;
55063;SDS011;40963;52.168;21.296;2022-10-31T13:59:16;17.27;;;7.80;;
55063;SDS011;40963;52.168;21.296;2022-10-31T14:01:46;15.25;;;9.25;;
55063;SDS011;40963;52.168;21.296;2022-10-31T14:04:22;19.85;;;10.10;;
55063;SDS011;40963;52.168;21.296;2022-10-31T14:14:47;16.95;;;10.10;;
55063;SDS011;40963;52.168;21.296;2022-10-31T14:17:20;22.35;;;9.60;;
55063;SDS011;40963;52.168;21.296;2022-10-31T14:20:49;23.75;;;10.38;;
55063;SDS011;40963;52.168;21.296;2022-10-31T14:22:43;18.15;;;10.30;;
55063;SDS011;40963;52.168;21.296;2022-10-31T14:25:25;16.48;;;10.30;;
55063;SDS011;40963;52.168;21.296;2022-10-31T14:27:57;22.15;;;10.45;;
55063;SDS011;40963;52.168;21.296;2022-10-31T14:30:24;20.63;;;10.25;;
55063;SDS011;40963;52.168;21.296;2022-10-31T14:33:02;16.58;;;10.35;;
55063;SDS011;40963;52.168;21.296;2022-10-31T14:36:41;22.70;;;10.23;;
55063;SDS011;40963;52.168;21.296;2022-10-31T14:41:29;25.10;;;11.07;;
55063;SDS011;40963;52.168;21.296;2022-10-31T14:47:01;25.00;;;12.20;;
55063;SDS011;40963;52.168;21.296;2022-10-31T14:49:54;23.25;;;11.15;;
55063;SDS011;40963;52.168;21.296;2022-10-31T14:52:36;19.88;;;10.82;;
55063;SDS011;40963;52.168;21.296;2022-10-31T14:55:03;16.60;;;9.82;;
55063;SDS011;40963;52.168;21.296;2022-10-31T14:57:33;20.13;;;9.35;;
55063;SDS011;40963;52.168;21.296;2022-10-31T15:00:02;18.60;;;9.07;;
55063;SDS011;40963;52.168;21.296;2022-10-31T15:02:32;17.23;;;9.05;;
55063;SDS011;40963;52.168;21.296;2022-10-31T15:05:08;18.90;;;10.18;;
55063;SDS011;40963;52.168;21.296;2022-10-31T15:07:35;23.88;;;11.27;;
55063;SDS011;40963;52.168;21.296;2022-10-31T15:10:05;25.20;;;12.80;;
55063;SDS011;40963;52.168;21.296;2022-10-31T15:12:46;27.58;;;12.98;;
55063;SDS011;40963;52.168;21.296;2022-10-31T15:15:12;29.83;;;13.52;;
55063;SDS011;40963;52.168;21.296;2022-10-31T15:17:44;28.60;;;13.73;;
55063;SDS011;40963;52.168;21.296;2022-10-31T15:20:17;30.48;;;13.43;;
55063;SDS011;40963;52.168;21.296;2022-10-31T15:22:51;32.03;;;13.93;;
55063;SDS011;40963;52.168;21.296;2022-10-31T15:25:19;32.33;;;14.13;;
55063;SDS011;40963;52.168;21.296;2022-10-31T15:27:50;34.20;;;14.10;;
55063;SDS011;40963;52.168;21.296;2022-10-31T15:30:21;29.55;;;13.77;;
55063;SDS011;40963;52.168;21.296;2022-10-31T15:32:51;25.58;;;14.82;;
55063;SDS011;40963;52.168;21.296;2022-10-31T15:35:20;34.40;;;16.20;;
55063;SDS011;40963;52.168;21.296;2022-10-31T15:37:53;28.08;;;15.68;;
55063;SDS011;40963;52.168;21.296;2022-10-31T15:40:20;34.55;;;17.65;;
55063;SDS011;40963;52.168;21.296;2022-10-31T15:42:51;34.13;;;17.70;;
55063;SDS011;40963;52.168;21.296;2022-10-31T15:45:25;33.70;;;18.65;;
55063;SDS011;40963;52.168;21.296;2022-10-31T15:47:59;42.25;;;19.10;;
55063;SDS011;40963;52.168;21.296;2022-10-31T15:50:31;34.30;;;19.23;;
55063;SDS011;40963;52.168;21.296;2022-10-31T15:53:00;42.38;;;19.20;;
55063;SDS011;40963;52.168;21.296;2022-10-31T15:55:29;39.08;;;19.33;;
55063;SDS011;40963;52.168;21.296;2022-10-31T15:57:58;37.78;;;18.90;;
55063;SDS011;40963;52.168;21.296;2022-10-31T16:00:32;36.28;;;19.42;;
55063;SDS011;40963;52.168;21.296;2022-10-31T16:05:34;32.55;;;18.20;;
55063;SDS011;40963;52.168;21.296;2022-10-31T16:11:14;37.83;;;18.63;;
55063;SDS011;40963;52.168;21.296;2022-10-31T16:13:56;35.90;;;17.58;;
55063;SDS011;40963;52.168;21.296;2022-10-31T16:16:26;37.35;;;19.27;;
55063;SDS011;40963;52.168;21.296;2022-10-31T16:18:53;44.17;;;18.25;;
55063;SDS011;40963;52.168;21.296;2022-10-31T16:21:36;32.22;;;17.70;;